Time;durP1;ratioP1;P1;durP2;ratioP2;P2;SDS_P1;SDS_P2;PMS_P1;PMS_P2;Temp;Humidity;BMP_temperature;BMP_pressure;BME280_temperature;BME280_humidity;BME280_pressure;Samples;Min_cycle;Max_cycle;Signal;HPM_P1;HPM_P2
2020/12/28 00:00:11;;;;;;;17.90;11.32;;;;;;;10.90;95.04;99987.59;5062359;28;20032;-68
2020/12/28 00:02:37;;;;;;;11.00;7.30;;;;;;;10.86;95.35;99995.25;5055384;28;20036;-71
2020/12/28 00:05:12;;;;;;;14.20;10.52;;;;;;;10.87;95.61;99995.28;5053572;28;20033;-72
2020/12/28 00:07:38;;;;;;;14.20;10.68;;;;;;;10.84;96.02;100000.34;5052300;28;20112;-75
2020/12/28 00:10:06;;;;;;;14.30;9.63;;;;;;;10.80;95.87;99977.88;5064990;28;20036;-71
2020/12/28 00:12:46;;;;;;;11.57;8.40;;;;;;;10.82;95.35;99961.59;5062369;28;20032;-71
2020/12/28 00:15:13;;;;;;;9.43;8.10;;;;;;;10.87;95.14;99963.44;5053496;28;20512;-71
2020/12/28 00:17:40;;;;;;;10.73;7.93;;;;;;;10.68;94.81;99919.03;5052735;28;20017;-71
2020/12/28 00:20:06;;;;;;;12.80;9.30;;;;;;;10.84;95.57;99948.69;5052011;28;20045;-71
2020/12/28 00:22:31;;;;;;;9.43;6.85;;;;;;;10.77;95.45;99932.19;5058924;28;20040;-69
2020/12/28 00:24:57;;;;;;;10.05;7.10;;;;;;;10.79;95.27;99938.28;5056817;28;20053;-70
2020/12/28 00:27:22;;;;;;;14.95;10.63;;;;;;;10.60;95.14;99903.31;5059957;28;20024;-72
2020/12/28 00:29:47;;;;;;;12.52;8.63;;;;;;;10.73;95.11;99914.88;5057007;28;20036;-71
2020/12/28 00:32:13;;;;;;;13.90;9.30;;;;;;;10.73;95.19;99914.88;5058319;28;20090;-69
2020/12/28 00:34:38;;;;;;;12.48;8.07;;;;;;;10.67;94.96;99891.47;5057867;28;20028;-73
2020/12/28 00:37:04;;;;;;;16.30;9.77;;;;;;;10.67;94.75;99891.47;5056993;28;20040;-69
2020/12/28 00:39:29;;;;;;;14.38;9.70;;;;;;;10.72;94.94;99913.13;5059391;28;20024;-69
2020/12/28 00:41:55;;;;;;;16.33;9.13;;;;;;;10.66;94.74;99897.44;5057923;28;20033;-69
2020/12/28 00:44:20;;;;;;;16.40;12.45;;;;;;;10.72;94.72;99905.38;5053748;28;20024;-68
2020/12/28 00:46:45;;;;;;;14.48;10.55;;;;;;;10.71;94.60;99913.06;5052410;28;20033;-69
2020/12/28 00:49:11;;;;;;;16.45;12.60;;;;;;;10.70;94.65;99903.56;5056489;28;20020;-68
2020/12/28 00:51:36;;;;;;;18.10;13.18;;;;;;;10.76;94.50;99904.59;5054393;28;20029;-69
2020/12/28 00:54:02;;;;;;;19.15;10.88;;;;;;;10.42;93.87;99846.03;5055283;28;20438;-69
2020/12/28 00:56:27;;;;;;;18.08;13.15;;;;;;;10.78;93.97;99914.97;5053301;28;20050;-69
2020/12/28 00:58:53;;;;;;;15.68;11.07;;;;;;;10.74;93.65;99914.03;5053199;28;20029;-70
2020/12/28 01:01:18;;;;;;;18.10;13.00;;;;;;;10.71;93.76;99902.75;5058530;28;20024;-71
2020/12/28 01:03:43;;;;;;;15.23;11.30;;;;;;;10.79;93.56;99914.13;5071403;28;20028;-68
2020/12/28 01:06:09;;;;;;;20.10;13.10;;;;;;;10.72;93.35;99895.03;5068884;28;20036;-70
2020/12/28 01:08:34;;;;;;;16.58;11.50;;;;;;;10.75;93.78;99923.50;5061589;28;20033;-72
2020/12/28 01:11:00;;;;;;;17.80;11.10;;;;;;;10.77;93.53;99910.66;5056639;28;20021;-71
2020/12/28 01:13:25;;;;;;;16.27;11.18;;;;;;;10.67;93.74;99899.22;5060840;28;20028;-71
2020/12/28 01:15:50;;;;;;;16.75;12.40;;;;;;;10.73;93.49;99914.88;5071806;28;20024;-69
2020/12/28 01:18:16;;;;;;;17.08;12.02;;;;;;;10.68;93.74;99911.28;5059345;28;20033;-67
2020/12/28 01:20:42;;;;;;;18.90;13.07;;;;;;;10.71;93.38;99898.44;5052693;28;20032;-69
2020/12/28 01:23:07;;;;;;;15.73;11.20;;;;;;;10.65;93.46;99890.53;5051985;28;20036;-70
2020/12/28 01:25:33;;;;;;;17.83;10.88;;;;;;;10.64;93.92;99900.00;5051655;28;20178;-70
2020/12/28 01:27:58;;;;;;;16.08;12.25;;;;;;;10.59;94.18;99893.84;5054735;28;20460;-70
2020/12/28 01:30:24;;;;;;;20.83;12.90;;;;;;;10.55;94.34;99873.06;5055479;28;20031;-70
2020/12/28 01:32:49;;;;;;;15.52;11.23;;;;;;;10.62;94.45;99885.31;5052283;28;20385;-70
2020/12/28 01:35:15;;;;;;;19.38;10.90;;;;;;;10.54;94.14;99877.31;5051794;28;20021;-74
2020/12/28 01:37:40;;;;;;;16.75;9.82;;;;;;;10.76;94.10;99914.94;5052443;28;20033;-70
2020/12/28 01:40:05;;;;;;;14.90;10.30;;;;;;;10.74;94.49;99924.38;5059994;28;20028;-70
2020/12/28 01:42:31;;;;;;;13.70;9.18;;;;;;;10.81;94.59;99934.00;5052272;28;20040;-73
2020/12/28 01:44:57;;;;;;;14.52;10.13;;;;;;;10.75;95.33;99925.22;5051813;28;20036;-72
2020/12/28 01:47:24;;;;;;;15.70;10.75;;;;;;;10.72;95.79;99930.31;5088793;28;20024;-70
2020/12/28 01:49:49;;;;;;;16.10;10.20;;;;;;;10.63;96.17;99907.69;5071388;28;20033;-72
2020/12/28 01:52:15;;;;;;;15.77;9.95;;;;;;;10.55;96.09;99897.16;5069188;28;20031;-70
2020/12/28 01:54:41;;;;;;;17.25;11.65;;;;;;;10.73;96.22;99934.63;5069198;28;20494;-71
2020/12/28 01:57:06;;;;;;;14.13;8.85;;;;;;;10.58;94.86;99906.69;5070145;28;20063;-68
2020/12/28 01:59:32;;;;;;;15.18;10.10;;;;;;;10.75;94.70;99913.19;5069723;28;20495;-74
2020/12/28 02:02:02;;;;;;;16.65;8.98;;;;;;;10.81;95.40;99933.16;5068415;28;20046;-72
2020/12/28 02:04:28;;;;;;;15.25;9.57;;;;;;;10.77;94.23;99918.41;5049068;28;20110;-73
2020/12/28 02:06:53;;;;;;;16.73;9.85;;;;;;;10.90;93.73;99912.72;5061201;28;20079;-73
2020/12/28 02:09:18;;;;;;;16.40;10.05;;;;;;;10.89;93.29;99905.84;5065721;28;20017;-72
2020/12/28 02:11:44;;;;;;;15.82;10.32;;;;;;;10.96;93.59;99905.13;5068626;28;20028;-72
2020/12/28 02:14:09;;;;;;;13.82;10.50;;;;;;;10.92;93.67;99900.72;5066224;28;20032;-73
2020/12/28 02:16:35;;;;;;;15.40;10.20;;;;;;;10.84;93.87;99886.72;5067992;28;20113;-70
2020/12/28 02:19:00;;;;;;;14.25;8.48;;;;;;;10.83;93.12;99885.88;5070014;28;20119;-70
2020/12/28 02:21:27;;;;;;;9.68;6.78;;;;;;;10.90;92.86;99870.53;5064011;28;20399;-69
2020/12/28 02:23:53;;;;;;;10.30;5.10;;;;;;;10.88;92.69;99830.88;5061597;28;20017;-67
2020/12/28 02:26:18;;;;;;;10.35;6.40;;;;;;;10.87;92.98;99842.06;5066651;28;20060;-68
2020/12/28 02:28:44;;;;;;;10.85;4.97;;;;;;;10.81;93.56;99829.84;5067239;28;20072;-70
2020/12/28 02:31:09;;;;;;;7.07;4.22;;;;;;;10.62;94.02;99792.38;5059299;28;20403;-70
2020/12/28 02:33:34;;;;;;;8.75;5.28;;;;;;;10.66;93.62;99805.38;5053145;28;20033;-70
2020/12/28 02:36:00;;;;;;;9.57;5.68;;;;;;;10.79;93.72;99847.91;5052709;28;20407;-68
2020/12/28 02:38:26;;;;;;;10.50;4.18;;;;;;;10.79;93.48;99827.25;5056277;28;20475;-68
2020/12/28 02:40:51;;;;;;;8.45;4.55;;;;;;;10.80;93.65;99831.59;5053408;28;20025;-69
2020/12/28 02:43:16;;;;;;;9.57;5.38;;;;;;;10.78;93.89;99840.09;5053106;28;20060;-70
2020/12/28 02:45:42;;;;;;;11.07;5.57;;;;;;;10.78;93.76;99840.97;5051719;28;20510;-69
2020/12/28 02:48:07;;;;;;;10.40;4.75;;;;;;;10.78;93.88;99829.75;5051245;28;20036;-69
2020/12/28 02:50:33;;;;;;;8.50;5.63;;;;;;;10.74;93.97;99825.38;5052225;28;20036;-68
2020/12/28 02:52:58;;;;;;;12.07;5.15;;;;;;;10.74;94.10;99826.25;5051515;28;20036;-69
2020/12/28 02:55:24;;;;;;;8.27;5.10;;;;;;;10.56;94.04;99790.50;5051806;28;20037;-70
2020/12/28 02:57:49;;;;;;;11.00;5.22;;;;;;;10.75;93.63;99817.66;5052252;28;20097;-68
2020/12/28 03:00:15;;;;;;;9.77;4.60;;;;;;;10.75;93.76;99824.53;5056241;28;20077;-71
2020/12/28 03:02:41;;;;;;;7.72;5.28;;;;;;;10.68;93.89;99832.13;5058307;28;20024;-71
2020/12/28 03:05:07;;;;;;;7.30;5.00;;;;;;;10.64;93.40;99830.31;5053422;28;20025;-70
2020/12/28 03:07:32;;;;;;;7.38;5.40;;;;;;;10.66;93.37;99841.53;5068611;28;20032;-68
2020/12/28 03:09:58;;;;;;;7.80;5.05;;;;;;;10.43;93.03;99807.38;5073213;28;20024;-71
2020/12/28 03:12:24;;;;;;;8.57;4.82;;;;;;;10.58;92.75;99852.47;5071094;28;20040;-68
2020/12/28 03:14:49;;;;;;;8.65;3.78;;;;;;;10.37;92.70;99825.28;5073215;28;20024;-69
2020/12/28 03:17:15;;;;;;;7.00;4.35;;;;;;;10.38;92.22;99828.72;5072459;28;20029;-70
2020/12/28 03:19:40;;;;;;;8.90;4.70;;;;;;;10.50;92.23;99857.44;5071160;28;20031;-70
2020/12/28 03:22:06;;;;;;;7.30;4.32;;;;;;;10.50;92.05;99855.75;5073088;28;20029;-69
2020/12/28 03:24:31;;;;;;;7.05;3.90;;;;;;;10.47;91.89;99858.22;5071090;28;20059;-68
2020/12/28 03:27:02;;;;;;;6.25;3.80;;;;;;;10.45;92.04;99870.22;5072681;28;20039;-69
2020/12/28 03:29:31;;;;;;;7.93;4.28;;;;;;;10.42;91.59;99862.41;5070573;28;20025;-71
2020/12/28 03:31:57;;;;;;;8.07;3.08;;;;;;;10.43;90.84;99859.00;5072537;28;20428;-71
2020/12/28 03:34:23;;;;;;;5.65;2.67;;;;;;;10.52;89.84;99863.53;5071706;28;20024;-67
2020/12/28 03:36:49;;;;;;;9.32;3.30;;;;;;;10.53;89.76;99860.13;5071995;28;20024;-70
2020/12/28 03:39:14;;;;;;;4.93;2.90;;;;;;;10.53;90.04;99854.97;5072418;28;20032;-71
2020/12/28 03:41:40;;;;;;;7.97;3.47;;;;;;;10.45;90.68;99862.47;5070601;28;20024;-69
2020/12/28 03:44:05;;;;;;;5.32;3.22;;;;;;;10.48;90.54;99864.25;5072997;28;20035;-70
2020/12/28 03:46:31;;;;;;;5.30;3.22;;;;;;;10.49;90.30;99866.91;5061945;28;20086;-70
2020/12/28 03:48:56;;;;;;;7.10;3.15;;;;;;;10.48;90.25;99878.06;5069993;28;20017;-73
2020/12/28 03:51:21;;;;;;;5.78;2.92;;;;;;;10.34;90.13;99848.34;5073921;28;20025;-71
2020/12/28 03:53:47;;;;;;;6.53;3.33;;;;;;;10.46;90.10;99879.69;5074571;28;20569;-72
2020/12/28 03:56:12;;;;;;;6.28;3.15;;;;;;;10.48;90.53;99884.91;5073738;28;20028;-68
2020/12/28 03:58:38;;;;;;;4.47;2.47;;;;;;;10.47;90.61;99880.59;5073823;28;20090;-70
2020/12/28 04:01:06;;;;;;;6.18;3.20;;;;;;;10.51;90.37;99882.41;5073290;28;20411;-69
2020/12/28 04:03:32;;;;;;;4.95;3.00;;;;;;;10.54;90.65;99884.22;5074033;28;20059;-70
2020/12/28 04:06:01;;;;;;;7.03;3.47;;;;;;;10.52;91.67;99890.19;5073678;28;20024;-70
2020/12/28 04:08:26;;;;;;;5.97;3.35;;;;;;;10.50;92.21;99858.34;5073766;28;20028;-69
2020/12/28 04:10:52;;;;;;;10.35;4.10;;;;;;;10.33;92.79;99851.75;5073497;28;20036;-69
2020/12/28 04:13:17;;;;;;;10.00;4.47;;;;;;;10.54;92.68;99879.91;5073684;28;20023;-69
2020/12/28 04:15:43;;;;;;;11.02;4.13;;;;;;;10.34;92.77;99843.19;5073414;28;20036;-71
2020/12/28 04:18:08;;;;;;;8.30;4.68;;;;;;;10.50;92.75;99865.19;5073360;28;20032;-71
2020/12/28 04:20:34;;;;;;;8.68;4.38;;;;;;;10.24;92.34;99794.78;5072545;28;20032;-71
2020/12/28 04:22:59;;;;;;;7.22;4.25;;;;;;;10.35;92.49;99832.06;5073288;28;20041;-71
2020/12/28 04:25:24;;;;;;;7.00;3.42;;;;;;;10.46;92.73;99859.06;5073632;28;20114;-71
2020/12/28 04:27:50;;;;;;;6.70;3.90;;;;;;;10.45;93.14;99867.63;5073139;28;20032;-71
2020/12/28 04:30:15;;;;;;;7.60;3.97;;;;;;;10.45;93.81;99877.94;5073333;28;20029;-68
2020/12/28 04:32:41;;;;;;;9.93;4.30;;;;;;;10.45;93.99;99866.75;5073412;28;20494;-71
2020/12/28 04:35:06;;;;;;;7.35;3.90;;;;;;;10.36;94.04;99857.91;5073379;28;20085;-72
2020/12/28 04:37:33;;;;;;;6.88;3.55;;;;;;;10.41;94.46;99875.25;5073276;28;20111;-70
2020/12/28 04:39:59;;;;;;;7.88;4.20;;;;;;;10.34;94.52;99876.75;5072896;28;20433;-71
2020/12/28 04:42:29;;;;;;;10.48;3.88;;;;;;;10.32;94.40;99876.72;5072766;28;20033;-69
2020/12/28 04:44:54;;;;;;;;;;;;;;;10.30;94.29;99883.53;5073526;28;20506;-70
2020/12/28 04:47:20;;;;;;;10.02;4.13;;;;;;;10.26;94.57;99880.84;5058978;28;19913;-70
2020/12/28 04:49:46;;;;;;;8.98;3.60;;;;;;;10.19;94.76;99867.75;5073079;28;20513;-69
2020/12/28 04:52:13;;;;;;;13.13;4.20;;;;;;;10.17;95.09;99864.25;5072745;28;20024;-69
2020/12/28 04:54:39;;;;;;;10.77;4.18;;;;;;;10.14;95.15;99858.13;5072769;28;20494;-71
2020/12/28 04:57:06;;;;;;;8.43;4.07;;;;;;;10.14;95.31;99864.16;5072787;28;20021;-72
2020/12/28 04:59:31;;;;;;;15.43;4.55;;;;;;;10.16;95.22;99857.34;5072729;28;20027;-71
2020/12/28 05:01:57;;;;;;;12.13;5.22;;;;;;;10.11;95.55;99866.66;5072859;28;20029;-72
2020/12/28 05:04:23;;;;;;;11.77;5.35;;;;;;;10.12;95.59;99870.09;5072842;28;20060;-71
2020/12/28 05:06:59;;;;;;;8.65;4.90;;;;;;;10.15;95.87;99872.78;5072658;28;20517;-72
2020/12/28 05:09:25;;;;;;;14.27;7.45;;;;;;;10.14;95.53;99882.22;5072236;28;20427;-68
2020/12/28 05:11:54;;;;;;;7.95;5.15;;;;;;;9.97;95.60;99860.19;5071161;28;20033;-71
2020/12/28 05:14:20;;;;;;;13.88;6.68;;;;;;;10.11;95.55;99889.88;5072369;28;20033;-68
2020/12/28 05:16:45;;;;;;;10.93;5.93;;;;;;;10.17;95.42;99897.78;5072569;28;20039;-70
2020/12/28 05:19:11;;;;;;;11.13;6.75;;;;;;;10.19;95.45;99906.44;5072540;28;20021;-73
2020/12/28 05:21:37;;;;;;;12.10;6.95;;;;;;;10.23;95.25;99914.25;5071976;28;20059;-72
2020/12/28 05:24:16;;;;;;;14.10;6.85;;;;;;;10.18;95.24;99920.16;5072249;28;20056;-73
2020/12/28 05:26:44;;;;;;;14.88;6.68;;;;;;;10.21;95.08;99919.38;5072069;28;20507;-68
2020/12/28 05:29:15;;;;;;;12.30;7.60;;;;;;;10.23;94.85;99922.00;5071685;28;20039;-72
2020/12/28 05:31:44;;;;;;;14.88;7.38;;;;;;;10.22;94.80;99928.88;5072213;28;20020;-69
2020/12/28 05:34:12;;;;;;;15.23;7.57;;;;;;;10.18;94.54;99930.50;5072338;28;20089;-71
2020/12/28 05:36:38;;;;;;;16.25;8.43;;;;;;;10.20;95.02;99939.16;5065936;28;20120;-71
2020/12/28 05:39:04;;;;;;;16.42;7.97;;;;;;;10.19;94.77;99927.09;5063888;28;20123;-71
2020/12/28 05:41:29;;;;;;;18.00;8.38;;;;;;;10.22;94.89;99934.03;5041781;28;20040;-71
2020/12/28 05:43:55;;;;;;;14.05;7.68;;;;;;;10.14;95.15;99931.25;5064055;28;20055;-71
2020/12/28 05:46:21;;;;;;;16.65;8.75;;;;;;;10.19;95.30;99932.25;5063642;28;20131;-69
2020/12/28 05:48:52;;;;;;;18.95;9.23;;;;;;;10.07;95.33;99921.56;5069195;28;20228;-71
2020/12/28 05:51:18;;;;;;;15.85;8.45;;;;;;;10.03;95.33;99918.00;5069207;28;20052;-69
2020/12/28 05:53:47;;;;;;;16.38;10.65;;;;;;;10.19;95.88;99927.09;5069338;28;20498;-72
2020/12/28 05:56:14;;;;;;;16.70;9.53;;;;;;;10.25;95.54;99930.66;5069165;28;20734;-69
2020/12/28 05:58:43;;;;;;;20.02;11.10;;;;;;;10.25;95.70;99930.66;5069317;28;20083;-71
2020/12/28 06:01:10;;;;;;;20.07;12.40;;;;;;;10.26;95.48;99922.09;5069003;28;20119;-72
2020/12/28 06:03:40;;;;;;;22.15;12.98;;;;;;;10.36;94.87;99942.22;5069122;28;20068;-69
2020/12/28 06:06:07;;;;;;;21.13;11.65;;;;;;;10.22;95.25;99913.41;5068732;28;20507;-71
2020/12/28 06:08:32;;;;;;;18.10;9.88;;;;;;;10.42;94.73;99944.06;5069159;28;20560;-71
2020/12/28 06:11:05;;;;;;;15.23;10.32;;;;;;;10.40;94.85;99931.13;5070700;28;20075;-71
2020/12/28 06:13:31;;;;;;;14.90;9.88;;;;;;;10.27;94.81;99921.25;5071279;28;20036;-69
2020/12/28 06:16:03;;;;;;;15.07;9.77;;;;;;;10.43;95.02;99957.06;5071222;28;20032;-75
2020/12/28 06:18:29;;;;;;;17.08;10.27;;;;;;;10.47;95.42;99961.47;5070804;28;20501;-71
2020/12/28 06:20:55;;;;;;;19.05;11.20;;;;;;;10.46;95.29;99971.75;5071271;28;20028;-68
2020/12/28 06:23:29;;;;;;;16.30;10.60;;;;;;;10.48;95.24;99970.06;5071255;28;20028;-68
2020/12/28 06:25:55;;;;;;;14.73;10.02;;;;;;;10.27;95.32;99931.56;5071609;28;20053;-71
2020/12/28 06:28:24;;;;;;;17.40;10.48;;;;;;;10.42;95.62;99962.16;5071141;28;20115;-71
2020/12/28 06:30:50;;;;;;;14.93;10.60;;;;;;;10.47;95.60;99966.63;5071104;28;20032;-71
2020/12/28 06:33:16;;;;;;;21.13;11.18;;;;;;;10.40;95.44;99946.63;5070954;28;20044;-71
2020/12/28 06:35:42;;;;;;;18.77;9.93;;;;;;;10.33;95.42;99947.22;5071109;28;20039;-71
2020/12/28 06:38:07;;;;;;;13.98;8.68;;;;;;;10.53;95.47;99981.44;5070945;28;20028;-71
2020/12/28 06:40:38;;;;;;;20.58;10.85;;;;;;;10.56;95.35;99988.38;5069926;28;20020;-73
2020/12/28 06:43:16;;;;;;;14.02;9.88;;;;;;;10.59;95.74;99993.63;5070843;28;20410;-71
2020/12/28 06:45:44;;;;;;;14.13;9.32;;;;;;;10.42;94.95;99960.44;5055240;28;20040;-71
2020/12/28 06:48:19;;;;;;;15.90;8.73;;;;;;;10.62;94.89;99992.00;5052450;28;20099;-70
2020/12/28 06:50:45;;;;;;;14.23;8.90;;;;;;;10.64;94.82;99982.59;5053648;28;20036;-71
2020/12/28 06:53:10;;;;;;;15.93;9.15;;;;;;;10.69;94.69;99987.88;5051984;28;20476;-74
2020/12/28 06:55:35;;;;;;;14.05;8.57;;;;;;;10.72;94.50;100007.78;5052376;28;20036;-71
2020/12/28 06:58:01;;;;;;;13.00;8.52;;;;;;;10.75;94.63;99989.78;5066940;28;20028;-71
2020/12/28 07:00:27;;;;;;;12.50;8.07;;;;;;;10.83;94.08;99999.50;5064948;28;20043;-73
2020/12/28 07:02:53;;;;;;;11.43;7.63;;;;;;;10.89;93.92;99998.81;5065924;28;20028;-70
2020/12/28 07:05:23;;;;;;;11.63;8.05;;;;;;;10.69;93.92;99964.66;5067116;28;20024;-70
2020/12/28 07:07:50;;;;;;;12.95;7.38;;;;;;;10.79;93.82;99976.09;5064314;28;20024;-71
2020/12/28 07:10:17;;;;;;;11.98;7.65;;;;;;;10.90;93.50;99990.19;5061830;28;20059;-71
2020/12/28 07:12:43;;;;;;;10.73;6.28;;;;;;;10.98;92.69;99986.13;5060195;28;20025;-69
2020/12/28 07:15:08;;;;;;;8.43;5.70;;;;;;;11.00;91.99;99981.00;5065010;28;20545;-71
2020/12/28 07:17:34;;;;;;;11.80;5.60;;;;;;;10.98;91.38;99977.50;5059892;28;20029;-71
2020/12/28 07:20:13;;;;;;;9.15;4.07;;;;;;;10.97;91.11;99978.34;5064239;28;20028;-69
2020/12/28 07:22:40;;;;;;;7.63;4.25;;;;;;;11.04;90.49;99977.69;5052984;28;20056;-71
2020/12/28 07:25:07;;;;;;;11.13;3.50;;;;;;;11.10;88.63;99966.63;5054122;28;20461;-71
2020/12/28 07:27:33;;;;;;;8.07;3.38;;;;;;;11.14;88.01;99969.34;5056083;28;20389;-72
2020/12/28 07:30:05;;;;;;;10.35;3.35;;;;;;;11.26;87.75;99980.81;5056002;28;20032;-72
2020/12/28 07:32:30;;;;;;;8.68;3.90;;;;;;;11.26;88.43;99971.34;5049820;28;20029;-69
2020/12/28 07:34:55;;;;;;;11.82;4.90;;;;;;;11.27;88.89;99974.84;5052947;28;20428;-68
2020/12/28 07:37:22;;;;;;;10.10;4.00;;;;;;;11.31;89.38;99980.13;5051541;28;20041;-68
2020/12/28 07:39:49;;;;;;;7.20;4.20;;;;;;;11.33;89.61;99987.91;5062097;28;20388;-71
2020/12/28 07:42:21;;;;;;;7.97;4.00;;;;;;;11.26;90.15;99971.34;5068797;28;20062;-71
2020/12/28 07:44:53;;;;;;;9.15;3.83;;;;;;;11.32;89.03;99976.69;5067323;28;20033;-71
2020/12/28 07:47:21;;;;;;;14.88;3.30;;;;;;;11.35;86.72;99975.03;5064293;28;20027;-69
2020/12/28 07:49:49;;;;;;;9.63;4.05;;;;;;;11.34;90.12;99987.09;5059236;28;20037;-68
2020/12/28 07:52:27;;;;;;;9.50;4.60;;;;;;;11.28;90.90;99977.44;5071172;28;20082;-71
2020/12/28 07:55:20;;;;;;;8.13;4.55;;;;;;;11.29;90.78;99978.31;5074170;28;20028;-74
2020/12/28 07:58:07;;;;;;;7.18;3.95;;;;;;;11.35;90.65;99987.94;5073822;28;20101;-75
2020/12/28 08:00:45;;;;;;;11.73;4.65;;;;;;;11.37;90.52;99981.97;5073204;28;20494;-71
2020/12/28 08:03:29;;;;;;;10.25;6.22;;;;;;;11.35;91.44;99977.59;5074374;28;20025;-71
2020/12/28 08:05:59;;;;;;;13.05;5.90;;;;;;;11.30;91.32;99965.44;5059282;28;20032;-68
2020/12/28 08:08:26;;;;;;;10.02;4.63;;;;;;;11.10;91.75;99943.38;5065113;28;20028;-73
2020/12/28 08:10:57;;;;;;;10.50;5.22;;;;;;;11.29;91.75;99984.38;5066345;28;20025;-71
2020/12/28 08:13:25;;;;;;;11.65;5.22;;;;;;;11.29;91.93;99974.03;5058511;28;20504;-71
2020/12/28 08:15:51;;;;;;;8.10;4.30;;;;;;;11.41;91.70;99986.38;5057275;28;20492;-70
2020/12/28 08:18:16;;;;;;;8.43;4.43;;;;;;;11.45;91.13;99995.97;5057621;28;20040;-72
2020/12/28 08:20:42;;;;;;;9.77;3.80;;;;;;;11.53;90.22;99992.72;5057330;28;20383;-71
2020/12/28 08:23:07;;;;;;;8.10;4.13;;;;;;;11.50;90.77;99988.31;5060443;28;20033;-70
2020/12/28 08:25:35;;;;;;;11.18;3.42;;;;;;;11.55;90.91;99996.19;5053792;28;20045;-71
2020/12/28 08:28:02;;;;;;;9.82;3.75;;;;;;;11.41;90.67;99960.53;5053501;28;20048;-70
2020/12/28 08:30:30;;;;;;;9.85;3.38;;;;;;;11.61;89.94;99986.03;5057070;28;20472;-72
2020/12/28 08:32:59;;;;;;;11.23;4.00;;;;;;;11.62;89.84;99986.03;5056384;28;20033;-72
2020/12/28 08:35:25;;;;;;;11.67;3.60;;;;;;;11.65;89.02;99978.38;5054947;28;20029;-75
2020/12/28 08:37:51;;;;;;;12.25;4.15;;;;;;;11.61;89.20;99947.22;5056572;28;20506;-75
2020/12/28 08:40:19;;;;;;;9.13;2.85;;;;;;;11.93;88.92;99975.59;5061754;28;20020;-72
2020/12/28 08:42:50;;;;;;;7.68;2.63;;;;;;;11.97;87.64;99985.19;5083393;28;20116;-71
2020/12/28 08:45:25;;;;;;;11.40;3.55;;;;;;;12.01;88.38;99968.03;5053341;28;20033;-73
2020/12/28 08:47:57;;;;;;;10.13;2.40;;;;;;;12.03;86.42;99976.72;5051978;28;20029;-72
2020/12/28 08:50:23;;;;;;;10.60;3.13;;;;;;;11.78;86.06;99939.91;5051938;28;20024;-74
2020/12/28 08:52:57;;;;;;;9.32;2.63;;;;;;;11.86;86.95;99961.63;5067419;28;20032;-73
2020/12/28 08:55:24;;;;;;;10.18;3.90;;;;;;;11.82;86.96;99970.16;5070762;28;20036;-73
2020/12/28 08:57:53;;;;;;;9.30;4.00;;;;;;;11.76;87.99;99978.66;5058643;28;20046;-74
2020/12/28 09:00:19;;;;;;;15.05;5.90;;;;;;;11.66;88.44;99961.16;5064305;28;20396;-73
2020/12/28 09:02:56;;;;;;;13.95;3.72;;;;;;;11.73;88.65;99972.53;5052767;28;20051;-72
2020/12/28 09:05:31;;;;;;;9.73;3.72;;;;;;;11.70;88.93;99969.84;5050435;28;20059;-72
2020/12/28 09:08:16;;;;;;;11.40;4.00;;;;;;;11.64;88.13;99958.53;5087696;28;20495;-72
2020/12/28 09:10:42;;;;;;;9.82;3.25;;;;;;;11.68;87.46;99949.13;5094219;28;20036;-73
2020/12/28 09:13:07;;;;;;;9.48;2.90;;;;;;;11.65;88.42;99949.94;5088217;28;20038;-73
2020/12/28 09:15:33;;;;;;;9.05;3.50;;;;;;;11.70;88.96;99952.66;5078372;28;20028;-73
2020/12/28 09:17:58;;;;;;;13.82;3.42;;;;;;;11.68;88.19;99956.03;5089026;28;20036;-74
2020/12/28 09:20:24;;;;;;;9.93;2.88;;;;;;;11.65;88.23;99961.97;5088595;28;20024;-73
2020/12/28 09:22:50;;;;;;;11.57;3.75;;;;;;;11.68;88.84;99975.00;5088132;28;20131;-72
2020/12/28 09:25:15;;;;;;;14.27;4.72;;;;;;;11.72;89.20;99978.53;5089078;28;20074;-73
2020/12/28 09:27:41;;;;;;;6.47;3.40;;;;;;;11.73;89.64;99975.13;5089113;28;20028;-72
2020/12/28 09:30:07;;;;;;;18.17;4.90;;;;;;;11.76;89.96;99970.91;5090635;28;20031;-73
2020/12/28 09:32:33;;;;;;;9.82;3.47;;;;;;;11.88;89.15;99969.44;5087933;28;20036;-72
2020/12/28 09:34:59;;;;;;;10.15;3.83;;;;;;;11.73;88.07;99939.78;5088220;28;20584;-72
2020/12/28 09:37:24;;;;;;;10.27;4.28;;;;;;;11.95;88.29;99958.38;5087312;28;20119;-73
2020/12/28 09:39:50;;;;;;;13.50;4.05;;;;;;;12.03;88.67;99948.25;5060918;28;20408;-73
2020/12/28 09:42:15;;;;;;;9.55;3.92;;;;;;;11.98;86.48;99946.41;5054301;28;20021;-72
2020/12/28 09:44:41;;;;;;;12.77;4.18;;;;;;;11.97;87.49;99960.22;5061270;28;20049;-72
2020/12/28 09:47:06;;;;;;;8.93;3.60;;;;;;;11.94;86.92;99943.72;5096871;28;20042;-72
2020/12/28 09:49:32;;;;;;;7.93;2.97;;;;;;;11.72;86.72;99907.00;5058651;28;20031;-73
2020/12/28 09:51:58;;;;;;;8.45;3.40;;;;;;;11.89;86.96;99922.03;5071624;28;20450;-72
2020/12/28 09:54:24;;;;;;;7.60;3.92;;;;;;;11.97;86.89;99923.09;5071220;28;20024;-72
2020/12/28 09:56:49;;;;;;;10.00;3.33;;;;;;;12.12;87.30;99912.22;5071492;28;20475;-72
2020/12/28 09:59:15;;;;;;;8.85;3.22;;;;;;;12.20;85.71;99920.13;5059407;28;20035;-72
2020/12/28 10:01:44;;;;;;;7.57;3.30;;;;;;;12.27;86.44;99909.97;5068608;28;20016;-74
2020/12/28 10:04:11;;;;;;;8.93;3.10;;;;;;;12.32;85.48;99894.53;5057177;28;20121;-72
2020/12/28 10:06:36;;;;;;;9.07;3.35;;;;;;;12.35;86.11;99910.13;5053643;28;20048;-73
2020/12/28 10:09:06;;;;;;;6.63;3.03;;;;;;;12.38;84.75;99898.97;5052674;28;20028;-70
2020/12/28 10:11:33;;;;;;;8.43;4.07;;;;;;;12.33;84.78;99900.59;5051922;28;20023;-72
2020/12/28 10:13:59;;;;;;;6.68;3.10;;;;;;;12.19;83.83;99861.50;5065174;28;20415;-72
2020/12/28 10:16:27;;;;;;;7.43;3.13;;;;;;;12.36;84.04;99890.28;5056550;28;20021;-75
2020/12/28 10:18:53;;;;;;;5.65;3.30;;;;;;;12.38;82.96;99873.06;5061296;28;20037;-72
2020/12/28 10:21:20;;;;;;;6.40;2.95;;;;;;;12.38;83.38;99860.13;5056772;28;20112;-72
2020/12/28 10:23:45;;;;;;;8.90;3.55;;;;;;;12.45;83.72;99874.94;5059722;28;20036;-70
2020/12/28 10:26:19;;;;;;;4.97;2.95;;;;;;;12.59;83.28;99864.84;5058782;28;20146;-73
2020/12/28 10:28:45;;;;;;;14.90;3.00;;;;;;;12.82;82.33;99859.22;5058588;28;20064;-69
2020/12/28 10:31:12;;;;;;;7.57;2.72;;;;;;;13.10;82.16;99851.06;5060079;28;20130;-73
2020/12/28 10:33:39;;;;;;;7.15;2.63;;;;;;;13.19;81.05;99839.97;5056579;28;20021;-73
2020/12/28 10:36:05;;;;;;;8.98;2.35;;;;;;;13.37;79.62;99841.13;5061450;28;20029;-72
2020/12/28 10:38:31;;;;;;;5.97;2.00;;;;;;;13.26;76.76;99818.50;5045473;28;20472;-73
2020/12/28 10:40:56;;;;;;;7.32;2.42;;;;;;;13.58;78.89;99843.19;5060382;28;20063;-74
2020/12/28 10:43:22;;;;;;;4.05;1.70;;;;;;;13.70;75.23;99830.41;5057229;28;20423;-70
2020/12/28 10:45:47;;;;;;;5.70;2.20;;;;;;;13.59;75.78;99806.94;5060115;28;20388;-73
2020/12/28 10:48:13;;;;;;;5.68;2.30;;;;;;;13.85;74.03;99837.53;5061237;28;20107;-73
2020/12/28 10:50:39;;;;;;;5.55;1.75;;;;;;;13.86;71.10;99843.59;5067308;28;20036;-73
2020/12/28 10:53:04;;;;;;;4.57;1.85;;;;;;;13.92;67.82;99843.69;5071365;28;20066;-74
2020/12/28 10:55:30;;;;;;;2.60;1.20;;;;;;;13.91;68.14;99835.00;5070813;28;20035;-69
2020/12/28 10:57:55;;;;;;;3.83;1.45;;;;;;;14.00;68.39;99831.66;5068978;28;20043;-71
2020/12/28 11:00:20;;;;;;;6.90;2.75;;;;;;;13.96;69.40;99845.44;5071421;28;20097;-73
2020/12/28 11:02:46;;;;;;;7.85;1.80;;;;;;;14.02;69.26;99847.28;5070908;28;20458;-72
2020/12/28 11:05:11;;;;;;;8.95;2.15;;;;;;;14.08;70.96;99831.75;5071109;28;20445;-74
2020/12/28 11:07:37;;;;;;;5.38;1.70;;;;;;;14.09;71.48;99825.72;5070643;28;20391;-77
2020/12/28 11:10:03;;;;;;;5.40;1.70;;;;;;;14.20;68.90;99833.63;5071008;28;20086;-74
2020/12/28 11:12:28;;;;;;;6.43;1.75;;;;;;;14.11;69.42;99836.13;5071166;28;20028;-74
2020/12/28 11:14:54;;;;;;;5.45;2.08;;;;;;;13.93;69.06;99811.66;5071190;28;20027;-75
2020/12/28 11:17:19;;;;;;;6.57;1.58;;;;;;;14.07;67.58;99828.28;5071214;28;20028;-76
2020/12/28 11:19:45;;;;;;;7.60;1.70;;;;;;;14.21;67.55;99850.97;5068724;28;20035;-69
2020/12/28 11:22:10;;;;;;;6.05;1.77;;;;;;;14.12;67.88;99830.94;5071057;28;20029;-72
2020/12/28 11:24:36;;;;;;;4.03;1.40;;;;;;;14.26;67.13;99851.03;5070674;28;20071;-74